createdAt,value
2016-12-05T00:00:07.951Z,17.32
2016-12-05T00:00:36.129Z,17.25
2016-12-05T00:01:03.928Z,17.22
2016-12-05T00:01:31.749Z,17.14
2016-12-05T00:02:00.138Z,17.2
2016-12-05T00:02:27.959Z,17.26
2016-12-05T00:02:55.779Z,17.3
2016-12-05T00:03:23.519Z,17.29
2016-12-05T00:03:51.634Z,17.35
2016-12-05T00:04:19.512Z,17.29
2016-12-05T00:04:47.600Z,17.29
2016-12-05T00:05:15.776Z,17.28
2016-12-05T00:05:43.600Z,17.25
2016-12-05T00:06:11.339Z,17.29
2016-12-05T00:06:39.145Z,17.29
2016-12-05T00:07:07.154Z,17.32
2016-12-05T00:07:35.300Z,17.33
2016-12-05T00:08:03.424Z,17.26
2016-12-05T00:08:31.513Z,17.13
2016-12-05T00:08:59.355Z,17.13
2016-12-05T00:09:27.536Z,17.1
2016-12-05T00:09:55.499Z,17.1
2016-12-05T00:10:24.010Z,17.11
2016-12-05T00:10:52.125Z,17.14
2016-12-05T00:11:19.924Z,17.18
2016-12-05T00:11:47.814Z,17.14
2016-12-05T00:12:15.620Z,17.15
2016-12-05T00:12:43.499Z,17.1
2016-12-05T00:13:11.611Z,17.1
2016-12-05T00:13:39.394Z,17.06
2016-12-05T00:14:07.606Z,17.07
2016-12-05T00:14:36.053Z,17.11
2016-12-05T00:15:03.936Z,17.13
2016-12-05T00:15:31.756Z,17.13
2016-12-05T00:15:59.551Z,17.14
2016-12-05T00:16:27.720Z,17.03
2016-12-05T00:16:56.562Z,17.06
2016-12-05T00:17:24.583Z,16.98
2016-12-05T00:17:52.343Z,17.03
2016-12-05T00:18:20.654Z,16.96
2016-12-05T00:18:48.813Z,16.92
2016-12-05T00:19:16.941Z,16.98
2016-12-05T00:19:44.809Z,16.9
2016-12-05T00:20:12.625Z,16.9
2016-12-05T00:20:40.416Z,16.96
2016-12-05T00:21:08.148Z,16.9
2016-12-05T00:21:36.313Z,16.95
2016-12-05T00:22:04.219Z,16.96
2016-12-05T00:22:31.981Z,16.98
2016-12-05T00:22:59.750Z,16.86
2016-12-05T00:23:27.832Z,16.88
2016-12-05T00:23:55.698Z,16.96
2016-12-05T00:24:23.573Z,16.85
2016-12-05T00:24:51.742Z,16.99
2016-12-05T00:25:19.866Z,16.85
2016-12-05T00:25:48.331Z,16.95
2016-12-05T00:26:16.198Z,16.92
2016-12-05T00:26:44.022Z,16.86
2016-12-05T00:27:11.988Z,16.9
2016-12-05T00:27:39.785Z,16.92
2016-12-05T00:28:07.953Z,17
2016-12-05T00:28:35.769Z,16.99
2016-12-05T00:29:03.549Z,16.96
2016-12-05T00:29:31.478Z,16.93
2016-12-05T00:29:59.297Z,16.9
2016-12-05T00:30:27.752Z,16.89
2016-12-05T00:30:55.868Z,16.93
2016-12-05T00:31:23.659Z,16.86
2016-12-05T00:31:51.423Z,16.95
2016-12-05T00:32:19.212Z,16.98
2016-12-05T00:32:47.049Z,16.92
2016-12-05T00:33:15.121Z,16.95
2016-12-05T00:33:43.198Z,16.85
2016-12-05T00:34:10.991Z,16.96
2016-12-05T00:34:38.731Z,16.95
2016-12-05T00:35:06.581Z,16.98
2016-12-05T00:35:34.424Z,16.9
2016-12-05T00:36:02.161Z,16.98
2016-12-05T00:36:30.042Z,17.07
2016-12-05T00:36:58.162Z,16.9
2016-12-05T00:37:25.961Z,16.93
2016-12-05T00:37:53.751Z,16.92
2016-12-05T00:38:21.838Z,16.98
2016-12-05T00:38:50.083Z,17.08
2016-12-05T00:39:18.247Z,17.07
2016-12-05T00:39:46.019Z,17
2016-12-05T00:40:13.814Z,16.96
2016-12-05T00:40:41.603Z,16.98
2016-12-05T00:41:09.442Z,17.03
2016-12-05T00:41:37.216Z,17.07
2016-12-05T00:42:05.339Z,17.08
2016-12-05T00:42:33.288Z,17.04
2016-12-05T00:43:01.157Z,17.03
2016-12-05T00:43:29.037Z,17.08
2016-12-05T00:43:57.063Z,17.04
2016-12-05T00:44:24.885Z,17.03
2016-12-05T00:44:52.697Z,16.96
2016-12-05T00:45:21.134Z,17.04
2016-12-05T00:45:49.200Z,17.04
2016-12-05T00:46:17.611Z,17.17
2016-12-05T00:46:45.463Z,17.1
2016-12-05T00:47:13.450Z,17.13
2016-12-05T00:47:41.565Z,17.08
2016-12-05T00:48:09.377Z,17.15
2016-12-05T00:48:37.193Z,17.17
2016-12-05T00:49:05.332Z,17.14
2016-12-05T00:49:33.053Z,17.15
2016-12-05T00:50:00.893Z,17.14
2016-12-05T00:50:28.679Z,17.11
2016-12-05T00:50:57.088Z,17.18
2016-12-05T00:51:24.884Z,17.13
2016-12-05T00:51:52.695Z,17.17
2016-12-05T00:52:20.861Z,17.11
2016-12-05T00:52:48.730Z,17.11
2016-12-05T00:53:16.506Z,17.13
2016-12-05T00:53:44.275Z,17.03
2016-12-05T00:54:12.124Z,16.95
2016-12-05T00:54:40.248Z,16.93
2016-12-05T00:55:08.390Z,17
2016-12-05T00:55:36.280Z,16.95
2016-12-05T00:56:04.822Z,16.9
2016-12-05T00:56:47.546Z,16.89
2016-12-05T00:57:15.744Z,16.95
2016-12-05T00:57:43.916Z,16.89
2016-12-05T00:58:11.781Z,16.93
2016-12-05T00:58:39.531Z,16.86
2016-12-05T00:59:08.082Z,16.93
2016-12-05T00:59:36.141Z,16.85
2016-12-05T01:00:03.954Z,16.95
2016-12-05T01:00:31.840Z,16.92
2016-12-05T01:00:59.625Z,16.9
2016-12-05T01:01:27.756Z,16.96
2016-12-05T01:01:55.612Z,16.98
2016-12-05T01:02:23.631Z,16.93
2016-12-05T01:02:51.767Z,16.95
2016-12-05T01:03:19.711Z,16.89
2016-12-05T01:03:47.555Z,16.86
2016-12-05T01:04:15.437Z,16.99
2016-12-05T01:04:43.598Z,16.88
2016-12-05T01:05:11.419Z,16.95
2016-12-05T01:05:39.514Z,16.93
2016-12-05T01:06:07.677Z,16.95
2016-12-05T01:06:35.511Z,16.95
2016-12-05T01:07:03.231Z,16.95
2016-12-05T01:07:31.388Z,16.83
2016-12-05T01:07:59.604Z,16.95
2016-12-05T01:08:27.794Z,16.93
2016-12-05T01:08:55.641Z,16.93
2016-12-05T01:09:23.790Z,16.93
2016-12-05T01:09:51.891Z,16.89
2016-12-05T01:10:19.920Z,16.9
2016-12-05T01:10:47.748Z,16.86
2016-12-05T01:11:15.618Z,16.96
2016-12-05T01:11:43.437Z,16.89
2016-12-05T01:12:11.239Z,16.92
2016-12-05T01:12:39.162Z,16.96
2016-12-05T01:13:07.599Z,16.95
2016-12-05T01:13:35.754Z,16.9
2016-12-05T01:14:03.505Z,16.95
2016-12-05T01:14:31.425Z,16.95
2016-12-05T01:15:00.478Z,16.93
2016-12-05T01:15:28.325Z,16.98
2016-12-05T01:15:56.400Z,16.92
2016-12-05T01:16:24.204Z,16.96
2016-12-05T01:16:52.582Z,17
2016-12-05T01:17:20.421Z,17.07
2016-12-05T01:17:48.546Z,17.04
2016-12-05T01:18:16.668Z,17.06
2016-12-05T01:18:44.791Z,17.11
2016-12-05T01:19:13.008Z,17.03
2016-12-05T01:19:41.197Z,16.98
2016-12-05T01:20:09.061Z,16.95
2016-12-05T01:20:36.897Z,16.93
2016-12-05T01:21:05.084Z,16.88
2016-12-05T01:21:33.147Z,16.93
2016-12-05T01:22:00.927Z,16.93
2016-12-05T01:22:29.076Z,17.03
2016-12-05T01:22:57.146Z,16.96
2016-12-05T01:23:25.473Z,17
2016-12-05T01:23:53.260Z,16.98
2016-12-05T01:24:21.066Z,17.03
2016-12-05T01:24:49.149Z,16.96
2016-12-05T01:25:17.011Z,16.96
2016-12-05T01:25:44.818Z,16.98
2016-12-05T01:26:12.606Z,16.93
2016-12-05T01:26:40.447Z,16.96
2016-12-05T01:27:08.219Z,16.99
2016-12-05T01:27:36.079Z,16.99
2016-12-05T01:28:04.179Z,16.93
2016-12-05T01:28:31.996Z,16.83
2016-12-05T01:28:59.778Z,16.77
2016-12-05T01:29:27.589Z,16.85
2016-12-05T01:29:55.718Z,16.83
2016-12-05T01:30:23.596Z,16.88
2016-12-05T01:30:51.352Z,16.77
2016-12-05T01:31:19.092Z,16.77
2016-12-05T01:31:46.926Z,16.85
2016-12-05T01:32:14.822Z,16.78
2016-12-05T01:32:42.717Z,16.78
2016-12-05T01:33:10.575Z,16.83
2016-12-05T01:33:38.408Z,16.88
2016-12-05T01:34:06.241Z,16.92
2016-12-05T01:34:34.358Z,16.93
2016-12-05T01:35:03.103Z,16.92
2016-12-05T01:35:31.240Z,16.93
2016-12-05T01:35:59.009Z,16.99
2016-12-05T01:36:27.427Z,16.92
2016-12-05T01:36:55.332Z,16.9
2016-12-05T01:37:23.453Z,16.96
2016-12-05T01:37:51.220Z,16.9
2016-12-05T01:38:19.073Z,16.88
2016-12-05T01:38:47.126Z,16.98
2016-12-05T01:39:14.968Z,16.92
2016-12-05T01:39:42.756Z,16.92
2016-12-05T01:40:10.559Z,16.9
2016-12-05T01:40:38.670Z,16.86
2016-12-05T01:41:06.767Z,16.81
2016-12-05T01:41:34.623Z,16.93
2016-12-05T01:42:02.393Z,16.92
2016-12-05T01:42:30.255Z,16.93
2016-12-05T01:42:58.228Z,16.83
2016-12-05T01:43:26.619Z,16.95
2016-12-05T01:43:54.483Z,16.93
2016-12-05T01:44:22.568Z,16.93
2016-12-05T01:44:50.705Z,16.92
2016-12-05T01:45:18.459Z,16.93
2016-12-05T01:45:46.255Z,16.92
2016-12-05T01:46:14.084Z,16.88
2016-12-05T01:46:42.116Z,16.83
2016-12-05T01:47:10.201Z,16.81
2016-12-05T01:47:38.260Z,16.78
2016-12-05T01:48:06.794Z,16.88
2016-12-05T01:48:34.897Z,16.9
2016-12-05T01:49:02.701Z,16.88
2016-12-05T01:49:30.477Z,16.89
2016-12-05T01:49:58.346Z,16.95
2016-12-05T01:50:26.205Z,16.98
2016-12-05T01:50:54.075Z,16.96
2016-12-05T01:51:21.924Z,16.98
2016-12-05T01:51:49.711Z,16.96
2016-12-05T01:52:17.516Z,16.96
2016-12-05T01:52:45.308Z,16.92
2016-12-05T01:53:13.458Z,16.95
2016-12-05T01:53:41.546Z,16.98
2016-12-05T01:54:09.372Z,16.86
2016-12-05T01:54:37.504Z,16.85
2016-12-05T01:55:05.454Z,16.89
2016-12-05T01:55:33.257Z,16.98
2016-12-05T01:56:01.028Z,16.89
2016-12-05T01:56:29.238Z,16.93
2016-12-05T01:56:57.058Z,16.92
2016-12-05T01:57:24.869Z,16.96
2016-12-05T01:57:52.901Z,16.92
2016-12-05T01:58:21.023Z,16.89
2016-12-05T01:58:49.151Z,16.96
2016-12-05T01:59:16.998Z,16.86
2016-12-05T01:59:45.472Z,16.9
2016-12-05T02:00:13.267Z,16.98
2016-12-05T02:00:41.077Z,16.83
2016-12-05T02:01:08.938Z,16.92
2016-12-05T02:01:36.716Z,16.92
2016-12-05T02:02:04.903Z,16.93
2016-12-05T02:02:32.760Z,16.93
2016-12-05T02:03:00.792Z,16.89
2016-12-05T02:03:28.620Z,16.9
2016-12-05T02:03:56.760Z,16.93
2016-12-05T02:04:24.639Z,16.81
2016-12-05T02:04:52.480Z,16.83
2016-12-05T02:05:20.368Z,16.8
2016-12-05T02:05:48.151Z,16.81
2016-12-05T02:06:15.994Z,16.9
2016-12-05T02:06:43.692Z,16.89
2016-12-05T02:07:11.504Z,16.88
2016-12-05T02:07:40.173Z,16.88
2016-12-05T02:08:08.047Z,16.83
2016-12-05T02:08:35.905Z,16.92
2016-12-05T02:09:03.807Z,16.95
2016-12-05T02:09:31.665Z,16.96
2016-12-05T02:09:59.426Z,16.99
2016-12-05T02:10:27.232Z,16.96
2016-12-05T02:10:55.065Z,16.98
2016-12-05T02:11:22.842Z,16.93
2016-12-05T02:11:50.717Z,16.95
2016-12-05T02:12:18.761Z,16.92
2016-12-05T02:12:46.709Z,16.9
2016-12-05T02:13:15.091Z,16.89
2016-12-05T02:13:43.220Z,16.85
2016-12-05T02:14:10.994Z,16.8
2016-12-05T02:14:38.850Z,16.8
2016-12-05T02:15:06.946Z,16.75
2016-12-05T02:15:35.051Z,16.65
2016-12-05T02:16:03.101Z,16.74
2016-12-05T02:16:30.968Z,16.74
2016-12-05T02:16:59.108Z,16.8
2016-12-05T02:17:26.861Z,16.78
2016-12-05T02:17:54.910Z,16.77
2016-12-05T02:18:23.020Z,16.85
2016-12-05T02:18:50.834Z,16.77
2016-12-05T02:19:18.903Z,16.78
2016-12-05T02:19:46.686Z,16.86
2016-12-05T02:20:14.593Z,16.92
2016-12-05T02:20:42.381Z,16.93
2016-12-05T02:21:10.120Z,16.86
2016-12-05T02:21:38.266Z,16.89
2016-12-05T02:22:06.369Z,16.93
2016-12-05T02:22:34.194Z,16.93
2016-12-05T02:23:02.030Z,16.89
2016-12-05T02:23:29.815Z,16.85
2016-12-05T02:23:57.957Z,16.9
2016-12-05T02:24:25.755Z,16.96
2016-12-05T02:24:53.988Z,16.92
2016-12-05T02:25:22.148Z,16.92
2016-12-05T02:25:49.996Z,16.89
2016-12-05T02:26:17.809Z,16.78
2016-12-05T02:26:45.957Z,16.83
2016-12-05T02:27:14.197Z,16.92
2016-12-05T02:27:42.438Z,16.8
2016-12-05T02:28:10.410Z,16.88
2016-12-05T02:28:38.225Z,16.8
2016-12-05T02:29:06.004Z,16.8
2016-12-05T02:29:33.913Z,16.8
2016-12-05T02:30:02.020Z,16.92
2016-12-05T02:30:29.781Z,16.8
2016-12-05T02:30:57.860Z,16.88
2016-12-05T02:31:25.759Z,16.89
2016-12-05T02:31:53.529Z,16.89
2016-12-05T02:32:21.612Z,16.78
2016-12-05T02:32:49.440Z,16.75
2016-12-05T02:33:17.761Z,16.62
2016-12-05T02:33:45.864Z,16.67
2016-12-05T02:34:14.073Z,16.74
2016-12-05T02:34:41.860Z,16.65
2016-12-05T02:35:09.622Z,16.8
2016-12-05T02:35:37.787Z,16.78
2016-12-05T02:36:05.942Z,16.78
2016-12-05T02:36:33.800Z,16.74
2016-12-05T02:37:01.542Z,16.77
2016-12-05T02:37:29.612Z,16.8
2016-12-05T02:37:57.493Z,16.75
2016-12-05T02:38:25.431Z,16.74
2016-12-05T02:38:53.323Z,16.74
2016-12-05T02:39:21.886Z,16.68
2016-12-05T02:39:49.729Z,16.74
2016-12-05T02:40:17.495Z,16.62
2016-12-05T02:40:45.307Z,16.73
2016-12-05T02:41:13.366Z,16.67
2016-12-05T02:41:41.215Z,16.68
2016-12-05T02:42:08.972Z,16.71
2016-12-05T02:42:37.126Z,16.75
2016-12-05T02:43:05.554Z,16.78
2016-12-05T02:43:33.894Z,16.78
2016-12-05T02:44:01.764Z,16.75
2016-12-05T02:44:29.576Z,16.71
2016-12-05T02:44:57.927Z,16.77
2016-12-05T02:45:26.068Z,16.8
2016-12-05T02:45:53.837Z,16.75
2016-12-05T02:46:21.666Z,16.77
2016-12-05T02:46:49.818Z,16.78
2016-12-05T02:47:18.177Z,16.81
2016-12-05T02:47:46.034Z,16.68
2016-12-05T02:48:13.816Z,16.74
2016-12-05T02:48:41.669Z,16.78
2016-12-05T02:49:09.467Z,16.83
2016-12-05T02:49:37.233Z,16.85
2016-12-05T02:50:05.060Z,16.85
2016-12-05T02:50:32.897Z,16.8
2016-12-05T02:51:01.298Z,16.8
2016-12-05T02:51:29.109Z,16.89
2016-12-05T02:51:56.934Z,16.9
2016-12-05T02:52:24.719Z,16.78
2016-12-05T02:52:52.482Z,16.92
2016-12-05T02:53:20.707Z,16.8
2016-12-05T02:53:48.773Z,16.86
2016-12-05T02:54:16.866Z,16.8
2016-12-05T02:54:45.046Z,16.75
2016-12-05T02:55:12.870Z,16.85
2016-12-05T02:55:41.329Z,16.78
2016-12-05T02:56:09.108Z,16.83
2016-12-05T02:56:36.927Z,16.73
2016-12-05T02:57:04.818Z,16.8
2016-12-05T02:57:32.950Z,16.77
2016-12-05T02:58:00.737Z,16.78
2016-12-05T02:58:28.529Z,16.92
2016-12-05T02:58:56.742Z,16.78
2016-12-05T02:59:24.479Z,16.83
2016-12-05T02:59:52.893Z,16.78
2016-12-05T03:00:20.753Z,16.86
2016-12-05T03:00:48.817Z,16.8
2016-12-05T03:01:16.726Z,16.85
2016-12-05T03:01:44.620Z,16.83
2016-12-05T03:02:12.499Z,16.77
2016-12-05T03:02:40.261Z,16.78
2016-12-05T03:03:08.013Z,16.78
2016-12-05T03:03:36.413Z,16.73
2016-12-05T03:04:04.596Z,16.78
2016-12-05T03:04:32.410Z,16.78
2016-12-05T03:05:00.214Z,16.81
2016-12-05T03:05:28.039Z,16.78
2016-12-05T03:05:55.911Z,16.81
2016-12-05T03:06:24.035Z,16.8
2016-12-05T03:06:52.504Z,16.71
2016-12-05T03:07:20.367Z,16.83
2016-12-05T03:07:48.462Z,16.86
2016-12-05T03:08:16.173Z,16.89
2016-12-05T03:08:45.052Z,16.83
2016-12-05T03:09:12.893Z,16.92
2016-12-05T03:09:40.719Z,16.88
2016-12-05T03:10:08.552Z,16.81
2016-12-05T03:10:36.348Z,16.85
2016-12-05T03:11:04.441Z,16.89
2016-12-05T03:11:32.867Z,16.8
2016-12-05T03:12:01.013Z,16.68
2016-12-05T03:12:28.817Z,16.83
2016-12-05T03:12:57.199Z,16.74
2016-12-05T03:13:25.814Z,16.9
2016-12-05T03:13:54.270Z,16.86
2016-12-05T03:14:22.465Z,16.77
2016-12-05T03:14:50.314Z,16.77
2016-12-05T03:15:18.136Z,16.8
2016-12-05T03:15:45.847Z,16.8
2016-12-05T03:16:13.677Z,16.81
2016-12-05T03:16:42.151Z,16.81
2016-12-05T03:17:10.593Z,16.73
2016-12-05T03:17:38.735Z,16.8
2016-12-05T03:18:06.563Z,16.86
2016-12-05T03:18:34.781Z,16.83
2016-12-05T03:19:02.534Z,16.83
2016-12-05T03:19:31.555Z,16.77
2016-12-05T03:19:59.379Z,16.8
2016-12-05T03:20:27.236Z,16.81
2016-12-05T03:20:54.953Z,16.89
2016-12-05T03:21:23.107Z,16.8
2016-12-05T03:21:50.856Z,16.83
2016-12-05T03:22:19.009Z,16.86
2016-12-05T03:22:46.913Z,16.83
2016-12-05T03:23:14.751Z,16.81
2016-12-05T03:23:42.742Z,16.9
2016-12-05T03:24:10.602Z,16.85
2016-12-05T03:24:38.575Z,16.89
2016-12-05T03:25:06.999Z,16.96
2016-12-05T03:25:35.261Z,16.85
2016-12-05T03:26:03.513Z,16.95
2016-12-05T03:26:31.407Z,16.88
2016-12-05T03:26:59.581Z,16.93
2016-12-05T03:27:27.316Z,16.93
2016-12-05T03:27:55.199Z,16.93
2016-12-05T03:28:23.330Z,16.95
2016-12-05T03:28:51.108Z,16.89
2016-12-05T03:29:19.260Z,16.98
2016-12-05T03:29:47.340Z,16.85
2016-12-05T03:30:15.169Z,16.88
2016-12-05T03:30:42.959Z,16.85
2016-12-05T03:31:10.819Z,16.95
2016-12-05T03:31:38.609Z,16.85
2016-12-05T03:32:06.350Z,16.8
2016-12-05T03:32:34.432Z,16.8
2016-12-05T03:33:02.265Z,16.83
2016-12-05T03:33:30.761Z,16.81
2016-12-05T03:33:58.986Z,16.86
2016-12-05T03:34:26.753Z,16.77
2016-12-05T03:34:54.904Z,16.8
2016-12-05T03:35:22.645Z,16.88
2016-12-05T03:35:50.784Z,16.89
2016-12-05T03:36:18.647Z,16.9
2016-12-05T03:36:46.444Z,16.8
2016-12-05T03:37:14.458Z,16.89
2016-12-05T03:37:42.235Z,16.75
2016-12-05T03:38:10.377Z,16.81
2016-12-05T03:38:38.135Z,16.71
2016-12-05T03:39:06.327Z,16.65
2016-12-05T03:39:34.461Z,16.67
2016-12-05T03:40:02.558Z,16.68
2016-12-05T03:40:30.461Z,16.68
2016-12-05T03:40:58.889Z,16.68
2016-12-05T03:41:26.684Z,16.7
2016-12-05T03:41:54.789Z,16.68
2016-12-05T03:42:22.889Z,16.7
2016-12-05T03:42:50.681Z,16.68
2016-12-05T03:43:18.776Z,16.7
2016-12-05T03:43:47.051Z,16.7
2016-12-05T03:44:14.922Z,16.68
2016-12-05T03:44:42.767Z,16.73
2016-12-05T03:45:10.842Z,16.67
2016-12-05T03:45:38.794Z,16.73
2016-12-05T03:46:06.639Z,16.65
2016-12-05T03:46:35.193Z,16.7
2016-12-05T03:47:03.603Z,16.75
2016-12-05T03:47:31.572Z,16.7
2016-12-05T03:47:59.388Z,16.71
2016-12-05T03:48:27.168Z,16.68
2016-12-05T03:48:55.459Z,16.7
2016-12-05T03:49:23.275Z,16.6
2016-12-05T03:49:51.018Z,16.63
2016-12-05T03:50:19.675Z,16.7
2016-12-05T03:50:47.621Z,16.74
2016-12-05T03:51:15.782Z,16.68
2016-12-05T03:51:43.543Z,16.68
2016-12-05T03:52:12.019Z,16.7
2016-12-05T03:52:39.985Z,16.65
2016-12-05T03:53:07.818Z,16.68
2016-12-05T03:53:35.655Z,16.7
2016-12-05T03:54:03.418Z,16.7
2016-12-05T03:54:31.197Z,16.68
2016-12-05T03:54:59.115Z,16.68
2016-12-05T03:55:26.970Z,16.62
2016-12-05T03:55:54.944Z,16.71
2016-12-05T03:56:37.700Z,16.63
2016-12-05T03:57:05.452Z,16.65
2016-12-05T03:57:33.280Z,16.7
2016-12-05T03:58:01.374Z,16.7
2016-12-05T03:58:29.498Z,16.7
2016-12-05T03:58:57.319Z,16.62
2016-12-05T03:59:25.470Z,16.74
2016-12-05T03:59:53.269Z,16.7
2016-12-05T04:00:21.107Z,16.73
2016-12-05T04:00:49.222Z,16.63
2016-12-05T04:01:17.002Z,16.74
2016-12-05T04:01:45.055Z,16.77
2016-12-05T04:02:12.799Z,16.85
2016-12-05T04:02:40.656Z,16.77
2016-12-05T04:03:08.787Z,16.83
2016-12-05T04:03:36.927Z,16.77
2016-12-05T04:04:04.992Z,16.88
2016-12-05T04:04:32.745Z,16.88
2016-12-05T04:05:00.563Z,16.89
2016-12-05T04:05:29.023Z,16.78
2016-12-05T04:05:56.853Z,16.86
2016-12-05T04:06:25.348Z,16.8
2016-12-05T04:06:53.101Z,16.74
2016-12-05T04:07:20.884Z,16.81
2016-12-05T04:07:48.973Z,16.81
2016-12-05T04:08:17.395Z,16.77
2016-12-05T04:08:45.181Z,16.78
2016-12-05T04:09:13.674Z,16.8
2016-12-05T04:09:42.075Z,16.81
2016-12-05T04:10:09.903Z,16.83
2016-12-05T04:10:38.078Z,16.77
2016-12-05T04:11:05.968Z,16.75
2016-12-05T04:11:33.942Z,16.73
2016-12-05T04:12:01.774Z,16.75
2016-12-05T04:12:29.578Z,16.83
2016-12-05T04:12:58.025Z,16.78
2016-12-05T04:13:25.833Z,16.75
2016-12-05T04:13:53.981Z,16.78
2016-12-05T04:14:22.417Z,16.8
2016-12-05T04:14:50.473Z,16.85
2016-12-05T04:15:18.338Z,16.73
2016-12-05T04:15:46.159Z,16.8
2016-12-05T04:16:14.274Z,16.8
2016-12-05T04:16:42.110Z,16.78
2016-12-05T04:17:09.931Z,16.81
2016-12-05T04:17:38.007Z,16.78
2016-12-05T04:18:05.801Z,16.81
2016-12-05T04:18:33.652Z,16.73
2016-12-05T04:19:02.293Z,16.8
2016-12-05T04:19:30.388Z,16.8
2016-12-05T04:19:58.281Z,16.74
2016-12-05T04:20:26.113Z,16.77
2016-12-05T04:20:54.420Z,16.65
2016-12-05T04:21:22.904Z,16.77
2016-12-05T04:21:51.082Z,16.74
2016-12-05T04:22:19.208Z,16.75
2016-12-05T04:22:47.108Z,16.75
2016-12-05T04:23:14.951Z,16.74
2016-12-05T04:23:42.784Z,16.83
2016-12-05T04:24:10.859Z,16.75
2016-12-05T04:24:38.600Z,16.77
2016-12-05T04:25:06.745Z,16.77
2016-12-05T04:25:35.252Z,16.77
2016-12-05T04:26:03.078Z,16.81
2016-12-05T04:26:31.249Z,16.73
2016-12-05T04:26:59.016Z,16.77
2016-12-05T04:27:27.419Z,16.8
2016-12-05T04:27:55.562Z,16.77
2016-12-05T04:28:23.674Z,16.74
2016-12-05T04:28:51.508Z,16.78
2016-12-05T04:29:19.407Z,16.75
2016-12-05T04:29:47.523Z,16.71
2016-12-05T04:30:15.241Z,16.74
2016-12-05T04:30:43.372Z,16.77
2016-12-05T04:31:11.190Z,16.78
2016-12-05T04:31:39.708Z,16.7
2016-12-05T04:32:07.591Z,16.74
2016-12-05T04:32:35.798Z,16.77
2016-12-05T04:33:03.817Z,16.73
2016-12-05T04:33:31.935Z,16.78
2016-12-05T04:34:00.093Z,16.8
2016-12-05T04:34:27.948Z,16.83
2016-12-05T04:34:55.769Z,16.74
2016-12-05T04:35:23.535Z,16.9
2016-12-05T04:35:51.628Z,16.78
2016-12-05T04:36:19.796Z,16.78
2016-12-05T04:36:47.588Z,16.74
2016-12-05T04:37:15.366Z,16.8
2016-12-05T04:37:43.232Z,16.83
2016-12-05T04:38:11.386Z,16.77
2016-12-05T04:38:39.544Z,16.78
2016-12-05T04:39:07.339Z,16.77
2016-12-05T04:39:35.403Z,16.83
2016-12-05T04:40:03.498Z,16.89
2016-12-05T04:40:31.585Z,16.86
2016-12-05T04:40:59.369Z,16.77
2016-12-05T04:41:27.117Z,16.9
2016-12-05T04:41:54.930Z,16.8
2016-12-05T04:42:23.056Z,16.83
2016-12-05T04:42:51.224Z,16.83
2016-12-05T04:43:19.287Z,16.75
2016-12-05T04:43:47.097Z,16.83
2016-12-05T04:44:14.973Z,16.83
2016-12-05T04:44:42.853Z,16.85
2016-12-05T04:45:10.894Z,16.89
2016-12-05T04:45:39.037Z,16.77
2016-12-05T04:46:06.792Z,16.8
2016-12-05T04:46:35.256Z,16.8
2016-12-05T04:47:03.078Z,16.78
2016-12-05T04:47:30.866Z,16.77
2016-12-05T04:47:59.029Z,16.88
2016-12-05T04:48:26.789Z,16.81
2016-12-05T04:48:55.232Z,16.74
2016-12-05T04:49:23.067Z,16.74
2016-12-05T04:49:50.931Z,16.65
2016-12-05T04:50:18.730Z,16.67
2016-12-05T04:50:46.598Z,16.7
2016-12-05T04:51:14.460Z,16.6
2016-12-05T04:51:42.869Z,16.6
2016-12-05T04:52:10.689Z,16.56
2016-12-05T04:52:38.567Z,16.59
2016-12-05T04:53:06.456Z,16.63
2016-12-05T04:53:34.582Z,16.53
2016-12-05T04:54:02.345Z,16.59
2016-12-05T04:54:30.391Z,16.56
2016-12-05T04:54:58.218Z,16.55
2016-12-05T04:55:26.319Z,16.52
2016-12-05T04:55:54.106Z,16.58
2016-12-05T04:56:22.316Z,16.59
2016-12-05T04:56:50.196Z,16.52
2016-12-05T04:57:18.482Z,16.53
2016-12-05T04:57:46.582Z,16.63
2016-12-05T04:58:14.386Z,16.63
2016-12-05T04:58:42.860Z,16.62
2016-12-05T04:59:10.686Z,16.68
2016-12-05T04:59:38.654Z,16.63
2016-12-05T05:00:07.098Z,16.6
2016-12-05T05:00:35.597Z,16.6
2016-12-05T05:01:03.409Z,16.55
2016-12-05T05:01:31.205Z,16.68
2016-12-05T05:01:59.338Z,16.65
2016-12-05T05:02:27.776Z,16.59
2016-12-05T05:02:55.866Z,16.65
2016-12-05T05:03:23.708Z,16.65
2016-12-05T05:03:51.851Z,16.67
2016-12-05T05:04:20.298Z,16.73
2016-12-05T05:04:48.212Z,16.65
2016-12-05T05:05:16.003Z,16.63
2016-12-05T05:05:43.831Z,16.68
2016-12-05T05:06:11.668Z,16.67
2016-12-05T05:06:39.618Z,16.62
2016-12-05T05:07:07.455Z,16.62
2016-12-05T05:07:35.331Z,16.63
2016-12-05T05:08:03.718Z,16.59
2016-12-05T05:08:32.177Z,16.62
2016-12-05T05:09:00.367Z,16.67
2016-12-05T05:09:28.229Z,16.63
2016-12-05T05:09:56.063Z,16.6
2016-12-05T05:10:23.846Z,16.67
2016-12-05T05:10:51.753Z,16.59
2016-12-05T05:11:19.935Z,16.59
2016-12-05T05:11:48.067Z,16.63
2016-12-05T05:12:15.906Z,16.55
2016-12-05T05:12:43.988Z,16.67
2016-12-05T05:13:11.765Z,16.59
2016-12-05T05:13:39.641Z,16.56
2016-12-05T05:14:07.707Z,16.58
2016-12-05T05:14:35.731Z,16.59
2016-12-05T05:15:03.797Z,16.67
2016-12-05T05:15:32.188Z,16.63
2016-12-05T05:16:00.385Z,16.62
2016-12-05T05:16:28.443Z,16.67
2016-12-05T05:16:56.614Z,16.65
2016-12-05T05:17:24.489Z,16.67
2016-12-05T05:17:52.603Z,16.68
2016-12-05T05:18:20.717Z,16.6
2016-12-05T05:18:48.513Z,16.63
2016-12-05T05:19:16.698Z,16.73
2016-12-05T05:19:45.048Z,16.67
2016-12-05T05:20:13.145Z,16.67
2016-12-05T05:20:40.941Z,16.63
2016-12-05T05:21:08.795Z,16.74
2016-12-05T05:21:36.836Z,16.59
2016-12-05T05:22:05.016Z,16.65
2016-12-05T05:22:33.202Z,16.7
2016-12-05T05:23:01.368Z,16.65
2016-12-05T05:23:29.106Z,16.63
2016-12-05T05:23:56.969Z,16.68
2016-12-05T05:24:24.802Z,16.7
2016-12-05T05:24:52.707Z,16.6
2016-12-05T05:25:20.568Z,16.7
2016-12-05T05:25:49.164Z,16.65
2016-12-05T05:26:17.006Z,16.74
2016-12-05T05:26:45.437Z,16.62
2016-12-05T05:27:13.215Z,16.73
2016-12-05T05:27:41.056Z,16.73
2016-12-05T05:28:09.631Z,16.67
2016-12-05T05:28:37.875Z,16.6
2016-12-05T05:29:20.294Z,16.71
2016-12-05T05:30:02.680Z,16.6
2016-12-05T05:30:30.551Z,16.71
2016-12-05T05:30:58.605Z,16.68
2016-12-05T05:31:26.480Z,16.68
2016-12-05T05:31:54.588Z,16.7
2016-12-05T05:33:48.067Z,16.74
2016-12-05T05:34:15.847Z,16.7
2016-12-05T05:34:44.096Z,16.7
2016-12-05T05:36:23.988Z,16.67
2016-12-05T05:36:51.896Z,16.7
2016-12-05T05:37:20.110Z,16.68
2016-12-05T05:37:47.979Z,16.68
2016-12-05T05:38:15.935Z,16.68
2016-12-05T05:38:43.781Z,16.67
2016-12-05T05:39:12.312Z,16.55
2016-12-05T05:39:40.522Z,16.59
2016-12-05T05:40:08.486Z,16.56
2016-12-05T05:40:36.359Z,16.53
2016-12-05T05:41:04.237Z,16.58
2016-12-05T05:41:32.726Z,16.56
2016-12-05T05:42:15.599Z,16.58
2016-12-05T05:42:43.404Z,16.55
2016-12-05T05:43:11.815Z,16.55
2016-12-05T05:43:39.617Z,16.52
2016-12-05T05:44:07.375Z,16.53
2016-12-05T05:44:35.562Z,16.48
2016-12-05T05:45:03.416Z,16.55
2016-12-05T05:45:31.224Z,16.5
2016-12-05T05:45:59.299Z,16.52
2016-12-05T05:46:27.121Z,16.55
2016-12-05T05:46:55.319Z,16.56
2016-12-05T05:47:23.145Z,16.52
2016-12-05T05:47:51.218Z,16.55
2016-12-05T05:48:19.102Z,16.55
2016-12-05T05:48:47.576Z,16.56
2016-12-05T05:49:15.752Z,16.62
2016-12-05T05:49:43.638Z,16.56
2016-12-05T05:50:11.617Z,16.6
2016-12-05T05:50:39.794Z,16.58
2016-12-05T05:51:07.920Z,16.59
2016-12-05T05:51:35.716Z,16.5
2016-12-05T05:52:03.527Z,16.49
2016-12-05T05:52:31.312Z,16.44
2016-12-05T05:52:59.127Z,16.41
2016-12-05T05:53:26.911Z,16.38
2016-12-05T05:53:55.072Z,16.4
2016-12-05T05:54:23.572Z,16.41
2016-12-05T05:54:51.360Z,16.38
2016-12-05T05:55:19.728Z,16.38
2016-12-05T05:55:47.862Z,16.4
2016-12-05T05:56:15.672Z,16.41
2016-12-05T05:56:43.465Z,16.38
2016-12-05T05:57:11.874Z,16.34
2016-12-05T05:57:39.678Z,16.41
2016-12-05T05:58:07.415Z,16.41
2016-12-05T05:58:35.215Z,16.38
2016-12-05T05:59:03.101Z,16.35
2016-12-05T05:59:31.217Z,16.33
2016-12-05T05:59:59.494Z,16.35
2016-12-05T06:00:27.500Z,16.33
2016-12-05T06:00:55.661Z,16.41
2016-12-05T06:01:23.379Z,16.38
2016-12-05T06:01:51.198Z,16.35
2016-12-05T06:02:19.341Z,16.34
2016-12-05T06:02:47.187Z,16.38
2016-12-05T06:03:14.988Z,16.41
2016-12-05T06:03:43.115Z,16.45
2016-12-05T06:04:10.954Z,16.37
2016-12-05T06:04:38.835Z,16.4
2016-12-05T06:05:06.717Z,16.4
2016-12-05T06:05:34.501Z,16.44
2016-12-05T06:06:02.323Z,16.34